sensor_id;sensor_type;location;lat;lon;timestamp;temperature;humidity
3644;DHT22;1838;50.742;7.158;2023-04-30T00:02:08;10.90;99.90
3644;DHT22;1838;50.742;7.158;2023-04-30T00:04:33;10.80;99.90
3644;DHT22;1838;50.742;7.158;2023-04-30T00:06:59;10.70;99.90
3644;DHT22;1838;50.742;7.158;2023-04-30T00:09:25;10.60;99.90
3644;DHT22;1838;50.742;7.158;2023-04-30T00:11:50;10.60;99.90
3644;DHT22;1838;50.742;7.158;2023-04-30T00:14:16;10.50;99.90
3644;DHT22;1838;50.742;7.158;2023-04-30T00:16:42;10.40;99.90
3644;DHT22;1838;50.742;7.158;2023-04-30T00:19:07;10.40;99.90
3644;DHT22;1838;50.742;7.158;2023-04-30T00:21:33;10.30;99.90
3644;DHT22;1838;50.742;7.158;2023-04-30T00:23:58;10.20;99.90
3644;DHT22;1838;50.742;7.158;2023-04-30T00:26:27;10.10;99.90
3644;DHT22;1838;50.742;7.158;2023-04-30T00:28:53;10.00;99.90
3644;DHT22;1838;50.742;7.158;2023-04-30T00:31:19;9.90;99.90
3644;DHT22;1838;50.742;7.158;2023-04-30T00:33:44;9.90;99.90
3644;DHT22;1838;50.742;7.158;2023-04-30T00:36:11;9.80;99.90
3644;DHT22;1838;50.742;7.158;2023-04-30T00:38:36;9.70;99.90
3644;DHT22;1838;50.742;7.158;2023-04-30T00:41:02;9.60;99.90
3644;DHT22;1838;50.742;7.158;2023-04-30T00:43:28;9.50;99.90
3644;DHT22;1838;50.742;7.158;2023-04-30T00:45:53;9.50;99.90
3644;DHT22;1838;50.742;7.158;2023-04-30T00:48:19;9.40;99.90
3644;DHT22;1838;50.742;7.158;2023-04-30T00:50:45;9.30;99.90
3644;DHT22;1838;50.742;7.158;2023-04-30T00:53:11;9.30;99.90
3644;DHT22;1838;50.742;7.158;2023-04-30T00:55:38;9.20;99.90
3644;DHT22;1838;50.742;7.158;2023-04-30T00:58:04;9.10;99.90
3644;DHT22;1838;50.742;7.158;2023-04-30T01:00:30;9.00;99.90
3644;DHT22;1838;50.742;7.158;2023-04-30T01:02:56;8.90;99.90
3644;DHT22;1838;50.742;7.158;2023-04-30T01:05:22;8.90;99.90
3644;DHT22;1838;50.742;7.158;2023-04-30T01:07:47;8.80;99.90
3644;DHT22;1838;50.742;7.158;2023-04-30T01:10:14;8.80;99.90
3644;DHT22;1838;50.742;7.158;2023-04-30T01:13:05;8.60;99.90
3644;DHT22;1838;50.742;7.158;2023-04-30T01:15:56;8.60;99.90
3644;DHT22;1838;50.742;7.158;2023-04-30T01:18:51;8.60;99.90
3644;DHT22;1838;50.742;7.158;2023-04-30T01:21:19;8.50;99.90
3644;DHT22;1838;50.742;7.158;2023-04-30T01:24:14;8.40;99.90
3644;DHT22;1838;50.742;7.158;2023-04-30T01:29:34;8.30;99.90
3644;DHT22;1838;50.742;7.158;2023-04-30T01:32:01;8.30;99.90
3644;DHT22;1838;50.742;7.158;2023-04-30T01:34:27;8.30;99.90
3644;DHT22;1838;50.742;7.158;2023-04-30T01:37:00;8.20;99.90
3644;DHT22;1838;50.742;7.158;2023-04-30T01:42:22;8.20;99.90
3644;DHT22;1838;50.742;7.158;2023-04-30T01:47:54;8.10;99.90
3644;DHT22;1838;50.742;7.158;2023-04-30T01:50:39;8.00;99.90
3644;DHT22;1838;50.742;7.158;2023-04-30T01:53:10;7.90;99.90
3644;DHT22;1838;50.742;7.158;2023-04-30T01:55:43;7.90;99.90
3644;DHT22;1838;50.742;7.158;2023-04-30T01:58:12;7.90;99.90
3644;DHT22;1838;50.742;7.158;2023-04-30T02:00:39;7.70;99.90
3644;DHT22;1838;50.742;7.158;2023-04-30T02:03:05;7.60;99.90
3644;DHT22;1838;50.742;7.158;2023-04-30T02:05:31;7.60;99.90
3644;DHT22;1838;50.742;7.158;2023-04-30T02:07:56;7.60;99.90
3644;DHT22;1838;50.742;7.158;2023-04-30T02:10:24;7.60;99.90
3644;DHT22;1838;50.742;7.158;2023-04-30T02:12:50;7.50;99.90
3644;DHT22;1838;50.742;7.158;2023-04-30T02:15:16;7.50;99.90
3644;DHT22;1838;50.742;7.158;2023-04-30T02:17:41;7.40;99.90
3644;DHT22;1838;50.742;7.158;2023-04-30T02:20:07;7.40;99.90
3644;DHT22;1838;50.742;7.158;2023-04-30T02:22:33;7.40;99.90
3644;DHT22;1838;50.742;7.158;2023-04-30T02:24:59;7.40;99.90
3644;DHT22;1838;50.742;7.158;2023-04-30T02:27:25;7.40;99.90
3644;DHT22;1838;50.742;7.158;2023-04-30T02:29:51;7.50;99.90
3644;DHT22;1838;50.742;7.158;2023-04-30T02:32:17;7.40;99.90
3644;DHT22;1838;50.742;7.158;2023-04-30T02:34:42;7.20;99.90
3644;DHT22;1838;50.742;7.158;2023-04-30T02:37:08;7.10;99.90
3644;DHT22;1838;50.742;7.158;2023-04-30T02:39:34;7.10;99.90
3644;DHT22;1838;50.742;7.158;2023-04-30T02:41:59;7.10;99.90
3644;DHT22;1838;50.742;7.158;2023-04-30T02:44:25;7.10;99.90
3644;DHT22;1838;50.742;7.158;2023-04-30T02:46:51;7.20;99.90
3644;DHT22;1838;50.742;7.158;2023-04-30T02:49:16;7.20;99.90
3644;DHT22;1838;50.742;7.158;2023-04-30T02:51:42;7.20;99.90
3644;DHT22;1838;50.742;7.158;2023-04-30T02:54:08;7.30;99.90
3644;DHT22;1838;50.742;7.158;2023-04-30T02:56:33;7.30;99.90
3644;DHT22;1838;50.742;7.158;2023-04-30T02:58:59;7.30;99.90
3644;DHT22;1838;50.742;7.158;2023-04-30T03:01:25;7.30;99.90
3644;DHT22;1838;50.742;7.158;2023-04-30T03:03:51;7.30;99.90
3644;DHT22;1838;50.742;7.158;2023-04-30T03:06:16;7.40;99.90
3644;DHT22;1838;50.742;7.158;2023-04-30T03:08:42;7.50;99.90
3644;DHT22;1838;50.742;7.158;2023-04-30T03:11:07;7.60;99.90
3644;DHT22;1838;50.742;7.158;2023-04-30T03:13:33;7.60;99.90
3644;DHT22;1838;50.742;7.158;2023-04-30T03:15:59;7.60;99.90
3644;DHT22;1838;50.742;7.158;2023-04-30T03:18:27;7.50;99.90
3644;DHT22;1838;50.742;7.158;2023-04-30T03:20:52;7.60;99.90
3644;DHT22;1838;50.742;7.158;2023-04-30T03:23:18;7.60;99.90
3644;DHT22;1838;50.742;7.158;2023-04-30T03:25:43;7.70;99.90
3644;DHT22;1838;50.742;7.158;2023-04-30T03:28:09;7.70;99.90
3644;DHT22;1838;50.742;7.158;2023-04-30T03:30:34;7.70;99.90
3644;DHT22;1838;50.742;7.158;2023-04-30T03:33:00;7.80;99.90
3644;DHT22;1838;50.742;7.158;2023-04-30T03:35:26;7.90;99.90
3644;DHT22;1838;50.742;7.158;2023-04-30T03:37:51;7.90;99.90
3644;DHT22;1838;50.742;7.158;2023-04-30T03:40:17;8.00;99.90
3644;DHT22;1838;50.742;7.158;2023-04-30T03:42:42;8.10;99.90
3644;DHT22;1838;50.742;7.158;2023-04-30T03:45:08;8.20;99.90
3644;DHT22;1838;50.742;7.158;2023-04-30T03:47:35;8.30;99.90
3644;DHT22;1838;50.742;7.158;2023-04-30T03:50:02;8.40;99.90
3644;DHT22;1838;50.742;7.158;2023-04-30T03:52:28;8.50;99.90
3644;DHT22;1838;50.742;7.158;2023-04-30T03:54:53;8.60;99.90
3644;DHT22;1838;50.742;7.158;2023-04-30T03:57:19;8.70;99.90
3644;DHT22;1838;50.742;7.158;2023-04-30T03:59:45;8.80;99.90
3644;DHT22;1838;50.742;7.158;2023-04-30T04:02:10;8.80;99.90
3644;DHT22;1838;50.742;7.158;2023-04-30T04:04:36;8.80;99.90
3644;DHT22;1838;50.742;7.158;2023-04-30T04:07:01;8.70;99.90
3644;DHT22;1838;50.742;7.158;2023-04-30T04:09:28;8.50;99.90
3644;DHT22;1838;50.742;7.158;2023-04-30T04:11:53;8.50;99.90
3644;DHT22;1838;50.742;7.158;2023-04-30T04:14:19;8.30;99.90
3644;DHT22;1838;50.742;7.158;2023-04-30T04:16:44;8.30;99.90
3644;DHT22;1838;50.742;7.158;2023-04-30T04:19:11;8.30;99.90
3644;DHT22;1838;50.742;7.158;2023-04-30T04:21:37;8.20;99.90
3644;DHT22;1838;50.742;7.158;2023-04-30T04:24:03;8.20;99.90
3644;DHT22;1838;50.742;7.158;2023-04-30T04:26:33;8.20;99.90
3644;DHT22;1838;50.742;7.158;2023-04-30T04:28:59;8.20;99.90
3644;DHT22;1838;50.742;7.158;2023-04-30T04:31:24;8.20;99.90
3644;DHT22;1838;50.742;7.158;2023-04-30T04:33:51;8.20;99.90
3644;DHT22;1838;50.742;7.158;2023-04-30T04:36:22;8.30;99.90
3644;DHT22;1838;50.742;7.158;2023-04-30T04:38:48;8.40;99.90
3644;DHT22;1838;50.742;7.158;2023-04-30T04:41:13;8.40;99.90
3644;DHT22;1838;50.742;7.158;2023-04-30T04:43:39;8.40;99.90
3644;DHT22;1838;50.742;7.158;2023-04-30T04:46:05;8.40;99.90
3644;DHT22;1838;50.742;7.158;2023-04-30T04:48:33;8.40;99.90
3644;DHT22;1838;50.742;7.158;2023-04-30T04:50:59;8.30;99.90
3644;DHT22;1838;50.742;7.158;2023-04-30T04:53:25;8.40;99.90
3644;DHT22;1838;50.742;7.158;2023-04-30T04:55:50;8.40;99.90
3644;DHT22;1838;50.742;7.158;2023-04-30T04:58:16;8.40;99.90
3644;DHT22;1838;50.742;7.158;2023-04-30T05:00:42;8.40;99.90
3644;DHT22;1838;50.742;7.158;2023-04-30T05:03:08;8.40;99.90
3644;DHT22;1838;50.742;7.158;2023-04-30T05:05:34;8.50;99.90
3644;DHT22;1838;50.742;7.158;2023-04-30T05:08:00;8.60;99.90
3644;DHT22;1838;50.742;7.158;2023-04-30T05:10:25;8.60;99.90
3644;DHT22;1838;50.742;7.158;2023-04-30T05:12:51;8.70;99.90
3644;DHT22;1838;50.742;7.158;2023-04-30T05:15:16;8.70;99.90
3644;DHT22;1838;50.742;7.158;2023-04-30T05:17:42;8.80;99.90
3644;DHT22;1838;50.742;7.158;2023-04-30T05:20:08;8.90;99.90
3644;DHT22;1838;50.742;7.158;2023-04-30T05:22:33;8.90;99.90
3644;DHT22;1838;50.742;7.158;2023-04-30T05:24:59;9.00;99.90
3644;DHT22;1838;50.742;7.158;2023-04-30T05:27:25;9.10;99.90
3644;DHT22;1838;50.742;7.158;2023-04-30T05:29:51;9.10;99.90
3644;DHT22;1838;50.742;7.158;2023-04-30T05:32:16;9.10;99.90
3644;DHT22;1838;50.742;7.158;2023-04-30T05:34:42;9.00;99.90
3644;DHT22;1838;50.742;7.158;2023-04-30T05:37:07;9.10;99.90
3644;DHT22;1838;50.742;7.158;2023-04-30T05:39:33;9.20;99.90
3644;DHT22;1838;50.742;7.158;2023-04-30T05:41:58;9.30;99.90
3644;DHT22;1838;50.742;7.158;2023-04-30T05:44:24;9.40;99.90
3644;DHT22;1838;50.742;7.158;2023-04-30T05:46:49;9.40;99.90
3644;DHT22;1838;50.742;7.158;2023-04-30T05:49:15;9.60;99.90
3644;DHT22;1838;50.742;7.158;2023-04-30T05:51:40;9.70;99.90
3644;DHT22;1838;50.742;7.158;2023-04-30T05:54:06;9.80;99.90
3644;DHT22;1838;50.742;7.158;2023-04-30T05:56:32;9.90;99.90
3644;DHT22;1838;50.742;7.158;2023-04-30T05:58:57;10.00;99.90
3644;DHT22;1838;50.742;7.158;2023-04-30T06:01:24;10.20;99.90
3644;DHT22;1838;50.742;7.158;2023-04-30T06:03:49;10.20;99.90
3644;DHT22;1838;50.742;7.158;2023-04-30T06:06:15;10.30;99.90
3644;DHT22;1838;50.742;7.158;2023-04-30T06:08:40;10.40;99.90
3644;DHT22;1838;50.742;7.158;2023-04-30T06:11:09;10.60;99.90
3644;DHT22;1838;50.742;7.158;2023-04-30T06:13:35;10.60;99.90
3644;DHT22;1838;50.742;7.158;2023-04-30T06:16:01;10.70;99.90
3644;DHT22;1838;50.742;7.158;2023-04-30T06:18:26;10.80;99.90
3644;DHT22;1838;50.742;7.158;2023-04-30T06:20:52;10.80;99.90
3644;DHT22;1838;50.742;7.158;2023-04-30T06:23:17;10.90;99.90
3644;DHT22;1838;50.742;7.158;2023-04-30T06:25:43;10.90;99.90
3644;DHT22;1838;50.742;7.158;2023-04-30T06:28:08;11.00;99.90
3644;DHT22;1838;50.742;7.158;2023-04-30T06:30:35;11.10;99.90
3644;DHT22;1838;50.742;7.158;2023-04-30T06:33:00;11.20;99.90
3644;DHT22;1838;50.742;7.158;2023-04-30T06:35:26;11.30;99.90
3644;DHT22;1838;50.742;7.158;2023-04-30T06:37:52;11.30;99.90
3644;DHT22;1838;50.742;7.158;2023-04-30T06:40:17;11.40;99.90
3644;DHT22;1838;50.742;7.158;2023-04-30T06:42:43;11.50;99.90
3644;DHT22;1838;50.742;7.158;2023-04-30T06:45:09;11.60;99.90
3644;DHT22;1838;50.742;7.158;2023-04-30T06:47:34;11.60;99.90
3644;DHT22;1838;50.742;7.158;2023-04-30T06:50:02;11.50;99.90
3644;DHT22;1838;50.742;7.158;2023-04-30T06:52:29;11.60;99.90
3644;DHT22;1838;50.742;7.158;2023-04-30T06:54:55;11.80;99.90
3644;DHT22;1838;50.742;7.158;2023-04-30T06:57:20;11.90;99.90
3644;DHT22;1838;50.742;7.158;2023-04-30T06:59:46;12.00;99.90
3644;DHT22;1838;50.742;7.158;2023-04-30T07:02:12;12.10;99.90
3644;DHT22;1838;50.742;7.158;2023-04-30T07:04:37;12.20;99.90
3644;DHT22;1838;50.742;7.158;2023-04-30T07:07:03;12.30;99.90
3644;DHT22;1838;50.742;7.158;2023-04-30T07:09:29;12.60;99.90
3644;DHT22;1838;50.742;7.158;2023-04-30T07:11:54;12.90;99.90
3644;DHT22;1838;50.742;7.158;2023-04-30T07:14:20;13.20;99.90
3644;DHT22;1838;50.742;7.158;2023-04-30T07:16:48;13.40;99.90
3644;DHT22;1838;50.742;7.158;2023-04-30T07:19:13;13.90;99.90
3644;DHT22;1838;50.742;7.158;2023-04-30T07:21:39;14.50;99.90
3644;DHT22;1838;50.742;7.158;2023-04-30T07:24:04;15.10;99.90
3644;DHT22;1838;50.742;7.158;2023-04-30T07:26:30;15.80;99.90
3644;DHT22;1838;50.742;7.158;2023-04-30T07:28:56;16.50;99.90
3644;DHT22;1838;50.742;7.158;2023-04-30T07:31:21;17.10;99.90
3644;DHT22;1838;50.742;7.158;2023-04-30T07:33:47;17.70;99.90
3644;DHT22;1838;50.742;7.158;2023-04-30T07:36:14;18.20;99.90
3644;DHT22;1838;50.742;7.158;2023-04-30T07:38:41;18.70;99.90
3644;DHT22;1838;50.742;7.158;2023-04-30T07:41:06;19.20;99.90
3644;DHT22;1838;50.742;7.158;2023-04-30T07:43:34;19.70;99.90
3644;DHT22;1838;50.742;7.158;2023-04-30T07:45:59;20.00;99.90
3644;DHT22;1838;50.742;7.158;2023-04-30T07:48:25;20.30;99.90
3644;DHT22;1838;50.742;7.158;2023-04-30T07:50:50;20.60;99.90
3644;DHT22;1838;50.742;7.158;2023-04-30T07:53:16;20.80;99.90
3644;DHT22;1838;50.742;7.158;2023-04-30T07:55:41;20.90;99.90
3644;DHT22;1838;50.742;7.158;2023-04-30T07:58:07;21.00;99.90
3644;DHT22;1838;50.742;7.158;2023-04-30T08:00:33;21.20;99.90
3644;DHT22;1838;50.742;7.158;2023-04-30T08:02:58;21.50;99.90
3644;DHT22;1838;50.742;7.158;2023-04-30T08:05:25;21.80;99.90
3644;DHT22;1838;50.742;7.158;2023-04-30T08:07:51;22.20;99.90
3644;DHT22;1838;50.742;7.158;2023-04-30T08:10:17;22.30;99.90
3644;DHT22;1838;50.742;7.158;2023-04-30T08:12:43;22.40;99.90
3644;DHT22;1838;50.742;7.158;2023-04-30T08:15:08;22.50;99.20
3644;DHT22;1838;50.742;7.158;2023-04-30T08:17:34;22.60;98.30
3644;DHT22;1838;50.742;7.158;2023-04-30T08:20:01;22.80;98.20
3644;DHT22;1838;50.742;7.158;2023-04-30T08:22:27;23.10;96.50
3644;DHT22;1838;50.742;7.158;2023-04-30T08:24:53;23.10;96.10
3644;DHT22;1838;50.742;7.158;2023-04-30T08:27:20;23.50;95.00
3644;DHT22;1838;50.742;7.158;2023-04-30T08:29:45;23.40;92.80
3644;DHT22;1838;50.742;7.158;2023-04-30T08:32:11;23.60;91.90
3644;DHT22;1838;50.742;7.158;2023-04-30T08:34:37;23.70;91.50
3644;DHT22;1838;50.742;7.158;2023-04-30T08:37:05;23.60;85.90
3644;DHT22;1838;50.742;7.158;2023-04-30T08:39:30;23.60;84.60
3644;DHT22;1838;50.742;7.158;2023-04-30T08:41:56;23.80;84.60
3644;DHT22;1838;50.742;7.158;2023-04-30T08:44:26;23.90;84.00
3644;DHT22;1838;50.742;7.158;2023-04-30T08:46:53;24.00;84.30
3644;DHT22;1838;50.742;7.158;2023-04-30T08:49:23;24.20;82.10
3644;DHT22;1838;50.742;7.158;2023-04-30T08:51:49;24.60;80.70
3644;DHT22;1838;50.742;7.158;2023-04-30T08:54:17;24.70;69.80
3644;DHT22;1838;50.742;7.158;2023-04-30T08:56:44;24.60;64.70
3644;DHT22;1838;50.742;7.158;2023-04-30T08:59:11;24.40;64.80
3644;DHT22;1838;50.742;7.158;2023-04-30T09:01:37;23.90;66.40
3644;DHT22;1838;50.742;7.158;2023-04-30T09:04:02;23.70;69.70
3644;DHT22;1838;50.742;7.158;2023-04-30T09:06:29;23.70;69.00
3644;DHT22;1838;50.742;7.158;2023-04-30T09:08:55;23.70;67.50
3644;DHT22;1838;50.742;7.158;2023-04-30T09:11:29;23.80;67.50
3644;DHT22;1838;50.742;7.158;2023-04-30T09:13:59;24.20;65.80
3644;DHT22;1838;50.742;7.158;2023-04-30T09:16:27;24.30;64.50
3644;DHT22;1838;50.742;7.158;2023-04-30T09:18:57;23.50;58.60
3644;DHT22;1838;50.742;7.158;2023-04-30T09:21:34;22.60;60.10
3644;DHT22;1838;50.742;7.158;2023-04-30T09:24:01;21.80;60.40
3644;DHT22;1838;50.742;7.158;2023-04-30T09:26:35;21.50;66.20
3644;DHT22;1838;50.742;7.158;2023-04-30T09:29:01;21.10;63.10
3644;DHT22;1838;50.742;7.158;2023-04-30T09:31:32;20.70;62.10
3644;DHT22;1838;50.742;7.158;2023-04-30T09:33:58;20.50;67.10
3644;DHT22;1838;50.742;7.158;2023-04-30T09:36:24;20.40;65.40
3644;DHT22;1838;50.742;7.158;2023-04-30T09:38:50;20.30;67.00
3644;DHT22;1838;50.742;7.158;2023-04-30T09:41:27;20.20;63.20
3644;DHT22;1838;50.742;7.158;2023-04-30T09:43:54;20.00;62.00
3644;DHT22;1838;50.742;7.158;2023-04-30T09:46:21;20.00;63.80
3644;DHT22;1838;50.742;7.158;2023-04-30T09:48:48;20.30;65.60
3644;DHT22;1838;50.742;7.158;2023-04-30T09:51:20;20.70;64.90
3644;DHT22;1838;50.742;7.158;2023-04-30T09:53:48;20.80;64.10
3644;DHT22;1838;50.742;7.158;2023-04-30T09:56:19;21.00;66.70
3644;DHT22;1838;50.742;7.158;2023-04-30T09:58:50;21.30;64.40
3644;DHT22;1838;50.742;7.158;2023-04-30T10:01:17;21.30;61.80
3644;DHT22;1838;50.742;7.158;2023-04-30T10:03:43;20.90;62.80
3644;DHT22;1838;50.742;7.158;2023-04-30T10:06:12;20.90;65.00
3644;DHT22;1838;50.742;7.158;2023-04-30T10:08:42;21.10;63.50
3644;DHT22;1838;50.742;7.158;2023-04-30T10:11:09;21.30;63.30
3644;DHT22;1838;50.742;7.158;2023-04-30T10:13:53;21.40;64.30
3644;DHT22;1838;50.742;7.158;2023-04-30T10:18:53;21.20;62.40
3644;DHT22;1838;50.742;7.158;2023-04-30T10:21:22;21.00;62.50
3644;DHT22;1838;50.742;7.158;2023-04-30T10:23:48;21.00;63.00
3644;DHT22;1838;50.742;7.158;2023-04-30T10:26:14;20.80;63.30
3644;DHT22;1838;50.742;7.158;2023-04-30T10:28:41;20.50;64.80
3644;DHT22;1838;50.742;7.158;2023-04-30T10:31:07;20.70;67.60
3644;DHT22;1838;50.742;7.158;2023-04-30T10:33:49;20.80;64.80
3644;DHT22;1838;50.742;7.158;2023-04-30T10:36:36;21.00;67.20
3644;DHT22;1838;50.742;7.158;2023-04-30T10:39:03;21.10;64.60
3644;DHT22;1838;50.742;7.158;2023-04-30T10:41:30;21.30;60.30
3644;DHT22;1838;50.742;7.158;2023-04-30T10:43:57;21.60;61.40
3644;DHT22;1838;50.742;7.158;2023-04-30T10:46:24;21.90;58.40
3644;DHT22;1838;50.742;7.158;2023-04-30T10:48:56;21.90;59.40
3644;DHT22;1838;50.742;7.158;2023-04-30T10:51:22;21.90;59.20
3644;DHT22;1838;50.742;7.158;2023-04-30T10:53:51;21.70;59.10
3644;DHT22;1838;50.742;7.158;2023-04-30T10:56:31;21.60;61.00
3644;DHT22;1838;50.742;7.158;2023-04-30T10:59:00;21.30;60.40
3644;DHT22;1838;50.742;7.158;2023-04-30T11:01:29;21.30;63.00
3644;DHT22;1838;50.742;7.158;2023-04-30T11:04:06;21.40;60.40
3644;DHT22;1838;50.742;7.158;2023-04-30T11:09:16;22.00;59.40
3644;DHT22;1838;50.742;7.158;2023-04-30T11:11:45;22.50;61.20
3644;DHT22;1838;50.742;7.158;2023-04-30T11:14:12;23.10;60.30
3644;DHT22;1838;50.742;7.158;2023-04-30T11:16:48;23.50;55.80
3644;DHT22;1838;50.742;7.158;2023-04-30T11:19:14;23.70;55.70
3644;DHT22;1838;50.742;7.158;2023-04-30T11:21:41;23.80;56.10
3644;DHT22;1838;50.742;7.158;2023-04-30T11:24:06;24.00;54.90
3644;DHT22;1838;50.742;7.158;2023-04-30T11:27:01;23.90;54.10
3644;DHT22;1838;50.742;7.158;2023-04-30T11:29:28;23.70;53.90
3644;DHT22;1838;50.742;7.158;2023-04-30T11:31:55;23.50;55.00
3644;DHT22;1838;50.742;7.158;2023-04-30T11:34:21;23.60;55.30
3644;DHT22;1838;50.742;7.158;2023-04-30T11:36:48;23.40;54.50
3644;DHT22;1838;50.742;7.158;2023-04-30T11:39:15;23.50;54.80
3644;DHT22;1838;50.742;7.158;2023-04-30T11:41:42;23.00;54.20
3644;DHT22;1838;50.742;7.158;2023-04-30T11:44:25;22.50;54.20
3644;DHT22;1838;50.742;7.158;2023-04-30T11:46:50;21.90;55.50
3644;DHT22;1838;50.742;7.158;2023-04-30T11:49:16;21.80;56.90
3644;DHT22;1838;50.742;7.158;2023-04-30T11:51:42;21.80;59.30
3644;DHT22;1838;50.742;7.158;2023-04-30T11:54:13;22.00;59.20
3644;DHT22;1838;50.742;7.158;2023-04-30T11:56:38;22.10;58.40
3644;DHT22;1838;50.742;7.158;2023-04-30T11:59:09;22.30;60.10
3644;DHT22;1838;50.742;7.158;2023-04-30T12:01:35;22.50;56.10
3644;DHT22;1838;50.742;7.158;2023-04-30T12:04:01;22.70;55.30
3644;DHT22;1838;50.742;7.158;2023-04-30T12:06:30;22.80;55.10
3644;DHT22;1838;50.742;7.158;2023-04-30T12:08:57;22.60;55.00
3644;DHT22;1838;50.742;7.158;2023-04-30T12:11:28;22.60;55.30
3644;DHT22;1838;50.742;7.158;2023-04-30T12:13:56;22.60;55.50
3644;DHT22;1838;50.742;7.158;2023-04-30T12:16:23;22.50;56.60
3644;DHT22;1838;50.742;7.158;2023-04-30T12:18:49;22.60;55.40
3644;DHT22;1838;50.742;7.158;2023-04-30T12:21:16;22.70;54.90
3644;DHT22;1838;50.742;7.158;2023-04-30T12:23:42;22.70;53.70
3644;DHT22;1838;50.742;7.158;2023-04-30T12:26:09;22.40;53.90
3644;DHT22;1838;50.742;7.158;2023-04-30T12:28:35;21.90;54.80
3644;DHT22;1838;50.742;7.158;2023-04-30T12:31:00;21.80;55.50
3644;DHT22;1838;50.742;7.158;2023-04-30T12:33:31;21.80;55.70
3644;DHT22;1838;50.742;7.158;2023-04-30T12:35:56;21.90;56.10
3644;DHT22;1838;50.742;7.158;2023-04-30T12:38:24;22.00;54.90
3644;DHT22;1838;50.742;7.158;2023-04-30T12:40:50;22.00;56.30
3644;DHT22;1838;50.742;7.158;2023-04-30T12:43:16;22.10;55.10
3644;DHT22;1838;50.742;7.158;2023-04-30T12:45:51;22.20;55.40
3644;DHT22;1838;50.742;7.158;2023-04-30T12:48:21;22.50;55.40
3644;DHT22;1838;50.742;7.158;2023-04-30T12:50:54;22.90;54.80
3644;DHT22;1838;50.742;7.158;2023-04-30T12:53:23;23.10;53.70
3644;DHT22;1838;50.742;7.158;2023-04-30T12:56:09;23.30;54.90
3644;DHT22;1838;50.742;7.158;2023-04-30T12:58:36;23.20;53.90
3644;DHT22;1838;50.742;7.158;2023-04-30T13:01:02;23.10;53.90
3644;DHT22;1838;50.742;7.158;2023-04-30T13:03:28;22.90;54.40
3644;DHT22;1838;50.742;7.158;2023-04-30T13:05:53;22.70;55.40
3644;DHT22;1838;50.742;7.158;2023-04-30T13:08:19;22.90;55.80
3644;DHT22;1838;50.742;7.158;2023-04-30T13:10:46;22.90;55.00
3644;DHT22;1838;50.742;7.158;2023-04-30T13:13:13;22.90;54.60
3644;DHT22;1838;50.742;7.158;2023-04-30T13:15:38;23.10;54.50
3644;DHT22;1838;50.742;7.158;2023-04-30T13:18:05;23.00;54.20
3644;DHT22;1838;50.742;7.158;2023-04-30T13:20:36;22.60;54.50
3644;DHT22;1838;50.742;7.158;2023-04-30T13:23:02;22.70;55.90
3644;DHT22;1838;50.742;7.158;2023-04-30T13:25:28;22.90;54.60
3644;DHT22;1838;50.742;7.158;2023-04-30T13:27:54;23.00;53.60
3644;DHT22;1838;50.742;7.158;2023-04-30T13:30:21;23.10;53.80
3644;DHT22;1838;50.742;7.158;2023-04-30T13:32:47;23.20;53.80
3644;DHT22;1838;50.742;7.158;2023-04-30T13:35:12;23.20;54.20
3644;DHT22;1838;50.742;7.158;2023-04-30T13:37:38;22.90;55.40
3644;DHT22;1838;50.742;7.158;2023-04-30T13:40:07;22.60;54.60
3644;DHT22;1838;50.742;7.158;2023-04-30T13:42:33;22.30;57.20
3644;DHT22;1838;50.742;7.158;2023-04-30T13:44:58;22.00;56.20
3644;DHT22;1838;50.742;7.158;2023-04-30T13:47:24;21.80;56.30
3644;DHT22;1838;50.742;7.158;2023-04-30T13:49:49;21.60;55.50
3644;DHT22;1838;50.742;7.158;2023-04-30T13:52:15;21.60;56.50
3644;DHT22;1838;50.742;7.158;2023-04-30T13:54:40;21.80;56.20
3644;DHT22;1838;50.742;7.158;2023-04-30T13:57:06;22.00;56.40
3644;DHT22;1838;50.742;7.158;2023-04-30T13:59:32;22.40;56.60
3644;DHT22;1838;50.742;7.158;2023-04-30T14:01:58;22.80;55.20
3644;DHT22;1838;50.742;7.158;2023-04-30T14:04:23;23.00;54.40
3644;DHT22;1838;50.742;7.158;2023-04-30T14:06:49;23.00;55.70
3644;DHT22;1838;50.742;7.158;2023-04-30T14:09:15;23.00;54.40
3644;DHT22;1838;50.742;7.158;2023-04-30T14:11:41;22.80;53.20
3644;DHT22;1838;50.742;7.158;2023-04-30T14:14:07;22.90;53.50
3644;DHT22;1838;50.742;7.158;2023-04-30T14:16:33;23.00;54.30
3644;DHT22;1838;50.742;7.158;2023-04-30T14:18:59;22.70;53.40
3644;DHT22;1838;50.742;7.158;2023-04-30T14:21:25;22.70;53.60
3644;DHT22;1838;50.742;7.158;2023-04-30T14:23:51;22.50;53.70
3644;DHT22;1838;50.742;7.158;2023-04-30T14:26:17;22.50;54.90
3644;DHT22;1838;50.742;7.158;2023-04-30T14:28:42;22.60;55.30
3644;DHT22;1838;50.742;7.158;2023-04-30T14:31:08;22.70;54.60
3644;DHT22;1838;50.742;7.158;2023-04-30T14:33:35;22.80;54.50
3644;DHT22;1838;50.742;7.158;2023-04-30T14:36:00;23.10;54.20
3644;DHT22;1838;50.742;7.158;2023-04-30T14:38:26;23.30;54.30
3644;DHT22;1838;50.742;7.158;2023-04-30T14:40:52;23.60;54.20
3644;DHT22;1838;50.742;7.158;2023-04-30T14:43:17;23.80;54.30
3644;DHT22;1838;50.742;7.158;2023-04-30T14:45:43;24.10;53.80
3644;DHT22;1838;50.742;7.158;2023-04-30T14:48:10;23.90;52.70
3644;DHT22;1838;50.742;7.158;2023-04-30T14:50:36;23.50;54.20
3644;DHT22;1838;50.742;7.158;2023-04-30T14:53:05;23.10;52.70
3644;DHT22;1838;50.742;7.158;2023-04-30T14:55:31;22.60;53.10
3644;DHT22;1838;50.742;7.158;2023-04-30T14:57:57;22.20;53.60
3644;DHT22;1838;50.742;7.158;2023-04-30T15:00:23;22.20;54.30
3644;DHT22;1838;50.742;7.158;2023-04-30T15:02:49;22.30;53.00
3644;DHT22;1838;50.742;7.158;2023-04-30T15:05:15;22.30;53.60
3644;DHT22;1838;50.742;7.158;2023-04-30T15:07:41;22.00;54.70
3644;DHT22;1838;50.742;7.158;2023-04-30T15:10:06;21.90;53.80
3644;DHT22;1838;50.742;7.158;2023-04-30T15:12:32;21.90;53.20
3644;DHT22;1838;50.742;7.158;2023-04-30T15:15:00;22.00;54.20
3644;DHT22;1838;50.742;7.158;2023-04-30T15:17:25;21.90;54.30
3644;DHT22;1838;50.742;7.158;2023-04-30T15:19:51;21.80;53.00
3644;DHT22;1838;50.742;7.158;2023-04-30T15:22:17;21.70;52.90
3644;DHT22;1838;50.742;7.158;2023-04-30T15:24:43;21.60;53.90
3644;DHT22;1838;50.742;7.158;2023-04-30T15:27:08;21.50;54.20
3644;DHT22;1838;50.742;7.158;2023-04-30T15:29:34;21.50;52.70
3644;DHT22;1838;50.742;7.158;2023-04-30T15:31:59;21.40;53.30
3644;DHT22;1838;50.742;7.158;2023-04-30T15:34:25;21.50;53.50
3644;DHT22;1838;50.742;7.158;2023-04-30T15:36:50;21.50;53.40
3644;DHT22;1838;50.742;7.158;2023-04-30T15:39:16;21.50;54.40
3644;DHT22;1838;50.742;7.158;2023-04-30T15:41:42;21.50;54.80
3644;DHT22;1838;50.742;7.158;2023-04-30T15:44:09;21.50;54.60
3644;DHT22;1838;50.742;7.158;2023-04-30T15:46:34;21.50;53.60
3644;DHT22;1838;50.742;7.158;2023-04-30T15:49:00;21.40;54.90
3644;DHT22;1838;50.742;7.158;2023-04-30T15:51:25;21.30;53.30
3644;DHT22;1838;50.742;7.158;2023-04-30T15:53:52;21.10;54.10
3644;DHT22;1838;50.742;7.158;2023-04-30T15:56:18;21.00;53.90
3644;DHT22;1838;50.742;7.158;2023-04-30T15:58:44;20.80;54.30
3644;DHT22;1838;50.742;7.158;2023-04-30T16:01:10;20.70;53.90
3644;DHT22;1838;50.742;7.158;2023-04-30T16:03:35;20.70;54.80
3644;DHT22;1838;50.742;7.158;2023-04-30T16:06:01;20.70;54.50
3644;DHT22;1838;50.742;7.158;2023-04-30T16:08:27;20.60;55.00
3644;DHT22;1838;50.742;7.158;2023-04-30T16:10:53;20.60;56.50
3644;DHT22;1838;50.742;7.158;2023-04-30T16:13:19;20.50;55.90
3644;DHT22;1838;50.742;7.158;2023-04-30T16:15:44;20.50;55.90
3644;DHT22;1838;50.742;7.158;2023-04-30T16:18:11;20.50;55.70
3644;DHT22;1838;50.742;7.158;2023-04-30T16:20:37;20.50;56.60